Sidecar Motocross World Championship

Qualifying Race

Rang N Rider Nation FMN Brand Laps FinishTime Gap Speed BestLap InLap
1 4 BROWN Stuart/MILLARD Joe GBR/GBR ACU/ACU WSP Husqvarna 14 25:47.309 14 Laps 52.76 01:55.439 9
2 111 WILLEMSEN Daniel/BAX Robbie NED/NED KNMV/KNMV WSP Zabel 14 25:59.928 00:12.619 52.34 01:56.007 13
3 9 VANLUCHENE Marvin/VAN DEN BOGAART Ben BEL/NED FMB/KNMV VMC Zabel 14 26:01.833 00:14.524 52.27 01:56.384 8
4 82 BAX Etienne/STUPELIS Kaspars NED/LAT KNMV/LaMSF WSP Zabel 14 26:05.218 00:17.909 52.16 01:56.266 13
5 15 VARIK Kert/DAIDERS Lauris EST/LAT EMF/LaMSF WSP Husqvarna 14 26:07.860 00:20.551 52.07 01:56.106 14
6 5 HERMANS Koen/MUSSET Nicolas NED/FRA KNMV/FFM WSP Zabel 14 26:08.749 00:21.440 52.04 01:55.051 10
7 10 VELDMAN Julian/JANSSENS Glenn NED/BEL KNMV/AMF WHT Husqvarna 14 26:17.811 00:30.502 51.74 01:57.803 10
8 11 SANDERS Davy/HALLER Andres BEL/GER FMB/DMSB WSP Zabel 14 26:26.674 00:39.365 51.45 01:57.638 10
9 7 CERMAK Tomas/CERMAK Ondrej CZE/CZE ACCR/ACCR WSP Mega 14 26:27.290 00:39.981 51.43 01:57.218 10
10 12 VAN WERVEN Gert/MANS Jens NED/BEL KNMV/AMF WSP TM 14 26:45.385 00:58.076 50.85 01:59.814 11
11 8 WILKINSON Brett/HUMPHREY Ryan GBR/GBR ACU/ACU WSP Zabel 14 26:47.978 01:00.669 50.77 01:59.306 12
12 19 SANTERMANS Kristof/BELECKAS Konstantinas BEL/LTU FMB/FMB WSP Zabel 14 26:58.697 01:11.388 50.44 02:01.020 12
13 85 DIERCKENS Arne/ROSTINGT Luc BEL/FRA FMB/FFM WSP Zabel 14 27:03.869 01:16.560 50.27 01:59.378 5
14 30 WEISS Benjamin/SCHNEIDER Patrick AUT/AUT AMF/AMF VMC Zabel 14 27:06.755 01:19.446 50.19 02:00.676 10
15 101 KOLENCIK Petr/HEJHAL Matej CZE/CZE ACCR/ACCR WSP Zabel 14 27:10.034 01:22.725 50.08 02:00.417 11
16 26 VEJCHODA Tomas/ZATLOUKAL Miroslav CZE/CZE ACCR/ACCR WSP Zabel 14 27:13.518 01:26.209 49.98 02:01.137 11
17 54 HROCH Pavel/HROCH Martin CZE/CZE ACCR/ACCR WSP Zabel 14 27:14.223 01:26.914 49.96 02:00.090 14
18 35 VRATNY Martin/URES Jiri CZE/CZE ACCR/ACCR WSP Husqvarna 14 27:37.089 01:49.780 49.27 02:03.043 14
19 48 BOUKAL Jan/BOUKAL Pavel CZE/CZE ACCR/ACCR WSP Zabel 14 27:37.904 01:50.595 49.24 02:02.099 13
20 49 REIMANN Joachim/REIMANN Phillip GER/GER DMSB/DMSB WSP Zabel 13 26:04.968 13 Laps 48.44 02:02.954 11
21 17 CUCHE Christophe/FORSTER Stefan SUI/GER FMS/DMSB VMC KTM 13 26:14.719 00:09.751 48.14 02:02.091 5
22 41 VARIAKOJIS Liutauras/PAIPALS Janis LIT/LAT LMSF/LMSF WSP Husqvarna 13 26:25.532 00:20.564 47.81 02:06.249 13
23 271 BALTUSIS Tomas/NATKA Tadas LIT/LIT LMSF/LMSF WSP Husqvarna 13 26:35.817 00:30.849 47.50 02:07.135 12
24 69 HANSAR Joosep/PEEVER Arno EST/EST EMF/EMF VMC KTM 13 26:37.271 00:32.303 47.46 02:07.759 10
25 61 PEC Ladislav/PEC Antonin CZE/CZE ACCR/ACCR WSP MEGA 13 27:08.955 01:03.987 46.54 02:08.958 8
26 81 KISIL Dmytro/PISKUNOV Oleksandr UKR/UKR FMU/FMU WSP Zabel 12 26:34.515 12 Laps 43.89 02:14.670 4
27 14 KUNNAS Riku/KUNNAS Lari FIN/FIN SML/SML WSP KTM 5 8:33.237 5 Laps 56.81 02:02.825 4
28 777 GLUSCHENKO Artur/GLUSCHENKO Elisey UKR/UKR FMU/FMU EML Zabel 5 25:52.190 17:18.953 18.78 02:12.512 3
29 2 GIRAUD Valentin/BADAIRE Johnny FRA/FRA FFM/FFM WHT Husqvarna 4 6:21.261 4 Laps 61.18 02:00.798 4
30 333 NEMILOSTIVYY Yury/NEMILOSTIVYY Dmytro UKR/UKR FMU/FMU VMC Husaberg 1 0:22.749 1 Lap 1

.

Best Lap: 5 HERMANS Koen/MUSSET Nicolas KNMV/FFM in 01:55.051 at 50.690 Km/H

Orion Transponder - www.dsvt.com Results on www.uatiming.com.ua